Terminal Aerodrome Forecast
Issued by NWS

Home | Current Version | Previous Version | Text Only | Print | Product List | Glossary On
Versions: 1 2 3 4 5 6 7 8 9 10 11 12 13 14 15 16 17
000
FTUS44 KCRP 241100
TAFALI
TAF
KALI 241120Z 2412/2512 VRB02KT P6SM FEW005 BKN250
      TEMPO 2412/2414 5SM BR BKN015
     FM241400 18006KT P6SM SKC
     FM241700 14010KT P6SM SCT035
     FM251000 15004KT P6SM SCT015=

USA.gov is the U.S. government's official web portal to all federal, state and local government web resources and services.